Aérodrome :
LOGIN :

S'inscrire | Disclaimer

   EN    FR    IT 

 










Légende :    VFR   VFR Marginal   IFR   IFR Intensif   IFR Très Intensif
Visi : 
Plafond : 
>= 8 km
>= 3000ft
5 à 8 km
1000 à 3000 ft
1500m à 5 km
500 à 1000 ft
800 à 1500m
200 à 500 ft
< 800m
< 200 ft
Symboles :   Orages  Brouillard  Fortes neiges  Fortes précipitations  Vent > 20 kt
SIGMETs :   Divers  Orages  Givrage  Turbulence  Onde Orograph.  Cendres Volcan.






- Altitude de l'aérodrome : 94 ft
- Code IATA : QLT


LIRL - Latina Casale (military)

DERNIER METAR :
  • 131755Z 27006KT 9999 FEW030 27/20 Q1013 RMK FEW MON LIB NC VIS MIN 9999 WIND THR12 29006KT WIND THR30 /////KT BLU

METARs EXPIRÉS :
  • 131655Z 24006KT 9999 FEW030 28/18 Q1013 RMK FEW MON LIB NC VIS MIN 9999 WIND THR12 25007KT WIND THR30 /////KT BLU
  • 131555Z 24008KT 9999 FEW030 29/20 Q1013 RMK FEW MON LIB NC VIS MIN 9999 WIND THR12 25008KT WIND THR30 /////KT BLU

TAF TAF LIRL
Valide du 13 à 15h jusqu'au 14 à 00h UTC


131400Z 1315/1324 21010KT 9999 SCT030
TEMPO 1315/1317 FEW020CB
BECMG 1316/1318 30006KT



MET'MAP, la Météo Aéronautique d'un coup d'oeil ! - Copyright ORBIFLY Décembre 2007 - Disclaimer

ORBIFLY MET'MAP TEAM :

Programmation & Développement : Alexandra Zaïnal
Sur une idée originale de : Baudouin d'Aumeries
Assistance à la programmation : Marc-Olivier Méhu
Soutien technique & logistique : Manuel Goepfert

Contact : metmap@orbifly.com




SOURCES & CREDITS :

   NOAA